sensor_id;sensor_type;location;lat;lon;timestamp;P1;durP1;ratioP1;P2;durP2;ratioP2
82412;SDS011;72056;51.980;15.436;2023-11-21T00:00:23;6.28;;;2.00;;
82412;SDS011;72056;51.980;15.436;2023-11-21T00:03:10;6.05;;;1.67;;
82412;SDS011;72056;51.980;15.436;2023-11-21T00:05:43;5.18;;;1.80;;
82412;SDS011;72056;51.980;15.436;2023-11-21T00:08:10;6.18;;;2.00;;
82412;SDS011;72056;51.980;15.436;2023-11-21T00:10:41;7.15;;;1.98;;
82412;SDS011;72056;51.980;15.436;2023-11-21T00:13:08;5.38;;;1.70;;
82412;SDS011;72056;51.980;15.436;2023-11-21T00:15:38;5.38;;;1.65;;
82412;SDS011;72056;51.980;15.436;2023-11-21T00:18:06;6.18;;;1.65;;
82412;SDS011;72056;51.980;15.436;2023-11-21T00:20:34;5.80;;;1.70;;
82412;SDS011;72056;51.980;15.436;2023-11-21T00:23:02;5.53;;;1.60;;
82412;SDS011;72056;51.980;15.436;2023-11-21T00:25:34;6.55;;;1.85;;
82412;SDS011;72056;51.980;15.436;2023-11-21T00:28:00;6.15;;;1.60;;
82412;SDS011;72056;51.980;15.436;2023-11-21T00:30:27;5.55;;;1.50;;
82412;SDS011;72056;51.980;15.436;2023-11-21T00:32:56;5.07;;;1.73;;
82412;SDS011;72056;51.980;15.436;2023-11-21T00:37:53;5.25;;;1.55;;
82412;SDS011;72056;51.980;15.436;2023-11-21T00:40:20;7.50;;;2.25;;
82412;SDS011;72056;51.980;15.436;2023-11-21T00:42:48;5.25;;;1.80;;
82412;SDS011;72056;51.980;15.436;2023-11-21T00:45:15;5.45;;;1.52;;
82412;SDS011;72056;51.980;15.436;2023-11-21T00:47:45;7.40;;;1.77;;
82412;SDS011;72056;51.980;15.436;2023-11-21T00:50:13;8.40;;;1.88;;
82412;SDS011;72056;51.980;15.436;2023-11-21T00:52:40;6.07;;;1.60;;
82412;SDS011;72056;51.980;15.436;2023-11-21T00:55:07;5.68;;;1.60;;
82412;SDS011;72056;51.980;15.436;2023-11-21T00:57:34;7.05;;;1.50;;
82412;SDS011;72056;51.980;15.436;2023-11-21T01:00:01;4.38;;;1.38;;
82412;SDS011;72056;51.980;15.436;2023-11-21T01:02:33;5.10;;;1.50;;
82412;SDS011;72056;51.980;15.436;2023-11-21T01:05:02;4.55;;;1.38;;
82412;SDS011;72056;51.980;15.436;2023-11-21T01:07:29;5.78;;;1.50;;
82412;SDS011;72056;51.980;15.436;2023-11-21T01:09:57;5.68;;;1.40;;
82412;SDS011;72056;51.980;15.436;2023-11-21T01:12:25;3.72;;;1.25;;
82412;SDS011;72056;51.980;15.436;2023-11-21T01:14:52;3.58;;;1.15;;
82412;SDS011;72056;51.980;15.436;2023-11-21T01:17:18;5.32;;;1.27;;
82412;SDS011;72056;51.980;15.436;2023-11-21T01:19:45;3.53;;;1.20;;
82412;SDS011;72056;51.980;15.436;2023-11-21T01:22:12;6.60;;;1.33;;
82412;SDS011;72056;51.980;15.436;2023-11-21T01:24:38;3.20;;;1.15;;
82412;SDS011;72056;51.980;15.436;2023-11-21T01:27:05;3.10;;;1.02;;
82412;SDS011;72056;51.980;15.436;2023-11-21T01:29:37;3.72;;;1.10;;
82412;SDS011;72056;51.980;15.436;2023-11-21T01:32:04;4.03;;;1.20;;
82412;SDS011;72056;51.980;15.436;2023-11-21T01:34:33;4.80;;;1.35;;
82412;SDS011;72056;51.980;15.436;2023-11-21T01:37:05;3.10;;;1.10;;
82412;SDS011;72056;51.980;15.436;2023-11-21T01:39:36;4.20;;;1.20;;
82412;SDS011;72056;51.980;15.436;2023-11-21T01:44:37;3.17;;;1.08;;
82412;SDS011;72056;51.980;15.436;2023-11-21T01:47:05;4.25;;;1.17;;
82412;SDS011;72056;51.980;15.436;2023-11-21T01:49:38;3.60;;;1.00;;
82412;SDS011;72056;51.980;15.436;2023-11-21T01:52:06;4.30;;;0.98;;
82412;SDS011;72056;51.980;15.436;2023-11-21T01:54:34;2.85;;;0.90;;
82412;SDS011;72056;51.980;15.436;2023-11-21T01:57:05;3.75;;;1.00;;
82412;SDS011;72056;51.980;15.436;2023-11-21T01:59:36;2.88;;;1.02;;
82412;SDS011;72056;51.980;15.436;2023-11-21T02:04:35;3.38;;;1.02;;
82412;SDS011;72056;51.980;15.436;2023-11-21T02:07:03;3.90;;;0.90;;
82412;SDS011;72056;51.980;15.436;2023-11-21T02:09:33;3.70;;;1.00;;
82412;SDS011;72056;51.980;15.436;2023-11-21T02:12:00;3.83;;;1.00;;
82412;SDS011;72056;51.980;15.436;2023-11-21T02:14:27;3.33;;;0.95;;
82412;SDS011;72056;51.980;15.436;2023-11-21T02:16:57;2.95;;;1.00;;
82412;SDS011;72056;51.980;15.436;2023-11-21T02:19:24;4.15;;;0.90;;
82412;SDS011;72056;51.980;15.436;2023-11-21T02:21:58;2.88;;;0.88;;
82412;SDS011;72056;51.980;15.436;2023-11-21T02:24:29;1.92;;;0.85;;
82412;SDS011;72056;51.980;15.436;2023-11-21T02:27:00;3.83;;;1.02;;
82412;SDS011;72056;51.980;15.436;2023-11-21T02:29:29;1.45;;;0.70;;
82412;SDS011;72056;51.980;15.436;2023-11-21T02:34:26;3.10;;;1.17;;
82412;SDS011;72056;51.980;15.436;2023-11-21T02:36:57;3.45;;;1.20;;
82412;SDS011;72056;51.980;15.436;2023-11-21T02:39:24;2.00;;;0.80;;
82412;SDS011;72056;51.980;15.436;2023-11-21T02:41:55;3.42;;;0.88;;
82412;SDS011;72056;51.980;15.436;2023-11-21T02:44:22;3.08;;;1.00;;
82412;SDS011;72056;51.980;15.436;2023-11-21T02:46:49;2.08;;;0.70;;
82412;SDS011;72056;51.980;15.436;2023-11-21T02:49:20;3.10;;;0.82;;
82412;SDS011;72056;51.980;15.436;2023-11-21T02:51:52;3.03;;;0.88;;
82412;SDS011;72056;51.980;15.436;2023-11-21T02:54:20;3.65;;;0.90;;
82412;SDS011;72056;51.980;15.436;2023-11-21T02:56:50;2.78;;;0.90;;
82412;SDS011;72056;51.980;15.436;2023-11-21T02:59:18;3.15;;;0.80;;
82412;SDS011;72056;51.980;15.436;2023-11-21T03:01:45;3.28;;;1.00;;
82412;SDS011;72056;51.980;15.436;2023-11-21T03:04:12;3.45;;;0.90;;
82412;SDS011;72056;51.980;15.436;2023-11-21T03:06:44;3.85;;;1.05;;
82412;SDS011;72056;51.980;15.436;2023-11-21T03:09:12;3.30;;;1.00;;
82412;SDS011;72056;51.980;15.436;2023-11-21T03:11:38;3.58;;;1.13;;
82412;SDS011;72056;51.980;15.436;2023-11-21T03:14:05;3.53;;;0.98;;
82412;SDS011;72056;51.980;15.436;2023-11-21T03:16:32;4.50;;;1.17;;
82412;SDS011;72056;51.980;15.436;2023-11-21T03:18:58;3.47;;;1.00;;
82412;SDS011;72056;51.980;15.436;2023-11-21T03:21:30;3.35;;;1.02;;
82412;SDS011;72056;51.980;15.436;2023-11-21T03:24:01;3.45;;;1.08;;
82412;SDS011;72056;51.980;15.436;2023-11-21T03:26:30;3.70;;;1.00;;
82412;SDS011;72056;51.980;15.436;2023-11-21T03:29:01;3.33;;;0.90;;
82412;SDS011;72056;51.980;15.436;2023-11-21T03:31:27;4.40;;;1.30;;
82412;SDS011;72056;51.980;15.436;2023-11-21T03:33:54;2.92;;;1.02;;
82412;SDS011;72056;51.980;15.436;2023-11-21T03:36:24;3.42;;;0.98;;
82412;SDS011;72056;51.980;15.436;2023-11-21T03:38:52;3.53;;;1.13;;
82412;SDS011;72056;51.980;15.436;2023-11-21T03:41:24;4.07;;;1.10;;
82412;SDS011;72056;51.980;15.436;2023-11-21T03:43:51;3.55;;;1.00;;
82412;SDS011;72056;51.980;15.436;2023-11-21T03:46:17;4.10;;;1.20;;
82412;SDS011;72056;51.980;15.436;2023-11-21T03:51:19;2.80;;;1.20;;
82412;SDS011;72056;51.980;15.436;2023-11-21T03:53:48;3.55;;;1.10;;
82412;SDS011;72056;51.980;15.436;2023-11-21T03:56:14;2.15;;;0.90;;
82412;SDS011;72056;51.980;15.436;2023-11-21T03:58:45;4.97;;;1.27;;
82412;SDS011;72056;51.980;15.436;2023-11-21T04:01:21;4.30;;;1.30;;
82412;SDS011;72056;51.980;15.436;2023-11-21T04:03:48;3.95;;;1.30;;
82412;SDS011;72056;51.980;15.436;2023-11-21T04:06:15;3.63;;;1.02;;
82412;SDS011;72056;51.980;15.436;2023-11-21T04:08:44;4.32;;;1.17;;
82412;SDS011;72056;51.980;15.436;2023-11-21T04:11:11;4.10;;;1.13;;
82412;SDS011;72056;51.980;15.436;2023-11-21T04:13:39;4.13;;;1.20;;
82412;SDS011;72056;51.980;15.436;2023-11-21T04:16:08;4.07;;;1.10;;
82412;SDS011;72056;51.980;15.436;2023-11-21T04:18:36;4.15;;;1.10;;
82412;SDS011;72056;51.980;15.436;2023-11-21T04:21:05;4.03;;;1.20;;
82412;SDS011;72056;51.980;15.436;2023-11-21T04:23:32;3.72;;;1.00;;
82412;SDS011;72056;51.980;15.436;2023-11-21T04:26:00;4.15;;;1.20;;
82412;SDS011;72056;51.980;15.436;2023-11-21T04:28:28;3.60;;;1.00;;
82412;SDS011;72056;51.980;15.436;2023-11-21T04:33:29;2.55;;;1.00;;
82412;SDS011;72056;51.980;15.436;2023-11-21T04:35:56;3.47;;;0.95;;
82412;SDS011;72056;51.980;15.436;2023-11-21T04:38:28;3.78;;;1.10;;
82412;SDS011;72056;51.980;15.436;2023-11-21T04:40:55;5.45;;;1.30;;
82412;SDS011;72056;51.980;15.436;2023-11-21T04:43:26;4.05;;;1.20;;
82412;SDS011;72056;51.980;15.436;2023-11-21T04:46:01;6.50;;;1.90;;
82412;SDS011;72056;51.980;15.436;2023-11-21T04:48:28;5.43;;;1.75;;
82412;SDS011;72056;51.980;15.436;2023-11-21T04:51:00;4.10;;;1.40;;
82412;SDS011;72056;51.980;15.436;2023-11-21T04:53:29;6.72;;;1.67;;
82412;SDS011;72056;51.980;15.436;2023-11-21T04:55:56;5.78;;;1.67;;
82412;SDS011;72056;51.980;15.436;2023-11-21T04:58:23;5.00;;;1.95;;
82412;SDS011;72056;51.980;15.436;2023-11-21T05:00:50;4.35;;;1.50;;
82412;SDS011;72056;51.980;15.436;2023-11-21T05:03:17;4.57;;;1.58;;
82412;SDS011;72056;51.980;15.436;2023-11-21T05:05:44;5.18;;;2.05;;
82412;SDS011;72056;51.980;15.436;2023-11-21T05:08:11;4.80;;;1.90;;
82412;SDS011;72056;51.980;15.436;2023-11-21T05:10:39;5.28;;;1.90;;
82412;SDS011;72056;51.980;15.436;2023-11-21T05:13:07;4.85;;;2.13;;
82412;SDS011;72056;51.980;15.436;2023-11-21T05:15:39;5.88;;;2.38;;
82412;SDS011;72056;51.980;15.436;2023-11-21T05:18:07;6.30;;;1.95;;
82412;SDS011;72056;51.980;15.436;2023-11-21T05:20:34;5.78;;;1.95;;
82412;SDS011;72056;51.980;15.436;2023-11-21T05:23:00;5.05;;;1.95;;
82412;SDS011;72056;51.980;15.436;2023-11-21T05:25:27;6.65;;;2.03;;
82412;SDS011;72056;51.980;15.436;2023-11-21T05:27:55;4.55;;;1.77;;
82412;SDS011;72056;51.980;15.436;2023-11-21T05:30:26;7.05;;;2.20;;
82412;SDS011;72056;51.980;15.436;2023-11-21T05:32:52;7.53;;;2.85;;
82412;SDS011;72056;51.980;15.436;2023-11-21T05:35:20;7.85;;;2.95;;
82412;SDS011;72056;51.980;15.436;2023-11-21T05:37:47;8.48;;;3.33;;
82412;SDS011;72056;51.980;15.436;2023-11-21T05:40:14;8.73;;;3.60;;
82412;SDS011;72056;51.980;15.436;2023-11-21T05:42:40;7.22;;;2.88;;
82412;SDS011;72056;51.980;15.436;2023-11-21T05:45:07;7.50;;;2.97;;
82412;SDS011;72056;51.980;15.436;2023-11-21T05:47:38;8.23;;;3.00;;
82412;SDS011;72056;51.980;15.436;2023-11-21T05:50:09;6.72;;;2.83;;
82412;SDS011;72056;51.980;15.436;2023-11-21T05:52:38;6.50;;;2.80;;
82412;SDS011;72056;51.980;15.436;2023-11-21T05:55:09;6.22;;;2.72;;
82412;SDS011;72056;51.980;15.436;2023-11-21T05:57:41;6.40;;;2.92;;
82412;SDS011;72056;51.980;15.436;2023-11-21T06:00:13;6.55;;;2.70;;
82412;SDS011;72056;51.980;15.436;2023-11-21T06:02:51;6.90;;;2.53;;
82412;SDS011;72056;51.980;15.436;2023-11-21T06:05:19;8.07;;;2.92;;
82412;SDS011;72056;51.980;15.436;2023-11-21T06:07:54;8.05;;;2.92;;
82412;SDS011;72056;51.980;15.436;2023-11-21T06:10:24;7.45;;;2.47;;
82412;SDS011;72056;51.980;15.436;2023-11-21T06:12:51;6.20;;;2.33;;
82412;SDS011;72056;51.980;15.436;2023-11-21T06:15:17;6.85;;;2.83;;
82412;SDS011;72056;51.980;15.436;2023-11-21T06:17:46;6.30;;;2.45;;
82412;SDS011;72056;51.980;15.436;2023-11-21T06:20:17;6.80;;;2.42;;
82412;SDS011;72056;51.980;15.436;2023-11-21T06:22:45;7.10;;;2.50;;
82412;SDS011;72056;51.980;15.436;2023-11-21T06:25:12;7.07;;;2.83;;
82412;SDS011;72056;51.980;15.436;2023-11-21T06:27:41;6.85;;;2.50;;
82412;SDS011;72056;51.980;15.436;2023-11-21T06:30:19;7.03;;;2.40;;
82412;SDS011;72056;51.980;15.436;2023-11-21T06:32:45;6.50;;;2.08;;
82412;SDS011;72056;51.980;15.436;2023-11-21T06:35:12;6.65;;;2.72;;
82412;SDS011;72056;51.980;15.436;2023-11-21T06:37:44;7.03;;;2.45;;
82412;SDS011;72056;51.980;15.436;2023-11-21T06:40:14;7.10;;;2.42;;
82412;SDS011;72056;51.980;15.436;2023-11-21T06:42:47;7.22;;;2.97;;
82412;SDS011;72056;51.980;15.436;2023-11-21T06:45:13;9.52;;;3.10;;
82412;SDS011;72056;51.980;15.436;2023-11-21T06:47:42;7.63;;;2.85;;
82412;SDS011;72056;51.980;15.436;2023-11-21T06:50:15;7.72;;;3.15;;
82412;SDS011;72056;51.980;15.436;2023-11-21T06:52:42;8.60;;;3.40;;
82412;SDS011;72056;51.980;15.436;2023-11-21T06:55:13;9.43;;;3.55;;
82412;SDS011;72056;51.980;15.436;2023-11-21T06:57:41;9.98;;;3.70;;
82412;SDS011;72056;51.980;15.436;2023-11-21T07:00:10;8.25;;;3.53;;
82412;SDS011;72056;51.980;15.436;2023-11-21T07:02:39;13.45;;;3.90;;
82412;SDS011;72056;51.980;15.436;2023-11-21T07:05:06;8.90;;;3.40;;
82412;SDS011;72056;51.980;15.436;2023-11-21T07:07:38;9.88;;;3.47;;
82412;SDS011;72056;51.980;15.436;2023-11-21T07:10:05;12.35;;;4.45;;
82412;SDS011;72056;51.980;15.436;2023-11-21T07:12:34;12.02;;;4.13;;
82412;SDS011;72056;51.980;15.436;2023-11-21T07:15:03;10.73;;;3.95;;
82412;SDS011;72056;51.980;15.436;2023-11-21T07:17:35;9.13;;;3.58;;
82412;SDS011;72056;51.980;15.436;2023-11-21T07:20:01;12.50;;;4.40;;
82412;SDS011;72056;51.980;15.436;2023-11-21T07:22:30;11.98;;;4.32;;
82412;SDS011;72056;51.980;15.436;2023-11-21T07:24:57;12.07;;;4.28;;
82412;SDS011;72056;51.980;15.436;2023-11-21T07:27:24;13.50;;;4.57;;
82412;SDS011;72056;51.980;15.436;2023-11-21T07:29:51;10.40;;;3.80;;
82412;SDS011;72056;51.980;15.436;2023-11-21T07:32:22;11.80;;;4.45;;
82412;SDS011;72056;51.980;15.436;2023-11-21T07:34:52;13.73;;;4.13;;
82412;SDS011;72056;51.980;15.436;2023-11-21T07:37:19;9.85;;;3.53;;
82412;SDS011;72056;51.980;15.436;2023-11-21T07:39:47;11.93;;;3.90;;
82412;SDS011;72056;51.980;15.436;2023-11-21T07:42:14;10.63;;;3.95;;
82412;SDS011;72056;51.980;15.436;2023-11-21T07:44:41;9.07;;;3.35;;
82412;SDS011;72056;51.980;15.436;2023-11-21T07:47:16;10.15;;;3.55;;
82412;SDS011;72056;51.980;15.436;2023-11-21T07:49:47;9.57;;;3.28;;
82412;SDS011;72056;51.980;15.436;2023-11-21T07:52:14;7.90;;;2.78;;
82412;SDS011;72056;51.980;15.436;2023-11-21T07:54:44;8.20;;;2.88;;
82412;SDS011;72056;51.980;15.436;2023-11-21T07:57:13;7.13;;;2.20;;
82412;SDS011;72056;51.980;15.436;2023-11-21T07:59:40;6.72;;;1.60;;
82412;SDS011;72056;51.980;15.436;2023-11-21T08:02:11;5.45;;;1.60;;
82412;SDS011;72056;51.980;15.436;2023-11-21T08:04:38;6.40;;;1.60;;
82412;SDS011;72056;51.980;15.436;2023-11-21T08:07:06;4.97;;;1.65;;
82412;SDS011;72056;51.980;15.436;2023-11-21T08:09:35;4.38;;;1.20;;
82412;SDS011;72056;51.980;15.436;2023-11-21T08:12:04;6.55;;;1.40;;
82412;SDS011;72056;51.980;15.436;2023-11-21T08:14:33;3.20;;;0.90;;
82412;SDS011;72056;51.980;15.436;2023-11-21T08:16:59;3.53;;;1.02;;
82412;SDS011;72056;51.980;15.436;2023-11-21T08:19:26;3.67;;;0.80;;
82412;SDS011;72056;51.980;15.436;2023-11-21T08:21:56;3.60;;;1.05;;
82412;SDS011;72056;51.980;15.436;2023-11-21T08:24:25;2.92;;;0.90;;
82412;SDS011;72056;51.980;15.436;2023-11-21T08:26:52;2.55;;;0.88;;
82412;SDS011;72056;51.980;15.436;2023-11-21T08:29:20;3.85;;;1.23;;
82412;SDS011;72056;51.980;15.436;2023-11-21T08:31:47;4.07;;;1.20;;
82412;SDS011;72056;51.980;15.436;2023-11-21T08:34:14;3.22;;;1.13;;
82412;SDS011;72056;51.980;15.436;2023-11-21T08:36:42;4.00;;;1.10;;
82412;SDS011;72056;51.980;15.436;2023-11-21T08:39:11;5.05;;;1.30;;
82412;SDS011;72056;51.980;15.436;2023-11-21T08:41:39;2.90;;;1.13;;
82412;SDS011;72056;51.980;15.436;2023-11-21T08:44:06;3.78;;;1.30;;
82412;SDS011;72056;51.980;15.436;2023-11-21T08:46:38;4.05;;;1.45;;
82412;SDS011;72056;51.980;15.436;2023-11-21T08:49:05;4.20;;;1.40;;
82412;SDS011;72056;51.980;15.436;2023-11-21T08:51:32;4.95;;;1.40;;
82412;SDS011;72056;51.980;15.436;2023-11-21T08:53:59;4.30;;;1.48;;
82412;SDS011;72056;51.980;15.436;2023-11-21T08:56:34;4.22;;;1.30;;
82412;SDS011;72056;51.980;15.436;2023-11-21T08:59:01;6.20;;;2.00;;
82412;SDS011;72056;51.980;15.436;2023-11-21T09:01:33;5.35;;;1.95;;
82412;SDS011;72056;51.980;15.436;2023-11-21T09:04:00;6.38;;;2.13;;
82412;SDS011;72056;51.980;15.436;2023-11-21T09:08:57;6.07;;;2.10;;
82412;SDS011;72056;51.980;15.436;2023-11-21T09:11:23;5.97;;;2.08;;
82412;SDS011;72056;51.980;15.436;2023-11-21T09:13:51;7.03;;;2.58;;
82412;SDS011;72056;51.980;15.436;2023-11-21T09:16:18;6.88;;;2.63;;
82412;SDS011;72056;51.980;15.436;2023-11-21T09:18:49;8.40;;;3.65;;
82412;SDS011;72056;51.980;15.436;2023-11-21T09:21:20;8.07;;;2.75;;
82412;SDS011;72056;51.980;15.436;2023-11-21T09:23:47;8.63;;;3.30;;
82412;SDS011;72056;51.980;15.436;2023-11-21T09:26:14;8.23;;;3.53;;
82412;SDS011;72056;51.980;15.436;2023-11-21T09:28:42;7.55;;;3.05;;
82412;SDS011;72056;51.980;15.436;2023-11-21T09:31:14;8.18;;;3.15;;
82412;SDS011;72056;51.980;15.436;2023-11-21T09:33:42;9.13;;;3.35;;
82412;SDS011;72056;51.980;15.436;2023-11-21T09:36:13;8.05;;;3.28;;
82412;SDS011;72056;51.980;15.436;2023-11-21T09:38:40;7.68;;;3.25;;
82412;SDS011;72056;51.980;15.436;2023-11-21T09:41:10;8.07;;;3.30;;
82412;SDS011;72056;51.980;15.436;2023-11-21T09:43:44;11.13;;;4.35;;
82412;SDS011;72056;51.980;15.436;2023-11-21T09:46:14;8.45;;;3.38;;
82412;SDS011;72056;51.980;15.436;2023-11-21T09:48:47;10.23;;;3.90;;
82412;SDS011;72056;51.980;15.436;2023-11-21T09:51:19;9.23;;;3.83;;
82412;SDS011;72056;51.980;15.436;2023-11-21T09:53:48;8.43;;;3.90;;
82412;SDS011;72056;51.980;15.436;2023-11-21T09:56:18;9.63;;;4.35;;
82412;SDS011;72056;51.980;15.436;2023-11-21T09:58:52;9.02;;;4.32;;
82412;SDS011;72056;51.980;15.436;2023-11-21T10:01:20;8.40;;;3.80;;
82412;SDS011;72056;51.980;15.436;2023-11-21T10:03:55;10.48;;;4.13;;
82412;SDS011;72056;51.980;15.436;2023-11-21T10:06:24;10.75;;;4.20;;
82412;SDS011;72056;51.980;15.436;2023-11-21T10:08:53;10.57;;;4.10;;
82412;SDS011;72056;51.980;15.436;2023-11-21T10:11:25;11.10;;;4.72;;
82412;SDS011;72056;51.980;15.436;2023-11-21T10:13:55;9.35;;;3.95;;
82412;SDS011;72056;51.980;15.436;2023-11-21T10:16:32;9.98;;;4.20;;
82412;SDS011;72056;51.980;15.436;2023-11-21T10:18:59;11.10;;;4.85;;
82412;SDS011;72056;51.980;15.436;2023-11-21T10:21:25;9.98;;;4.60;;
82412;SDS011;72056;51.980;15.436;2023-11-21T10:23:53;12.18;;;5.53;;
82412;SDS011;72056;51.980;15.436;2023-11-21T10:26:21;12.20;;;4.82;;
82412;SDS011;72056;51.980;15.436;2023-11-21T10:28:55;10.15;;;4.55;;
82412;SDS011;72056;51.980;15.436;2023-11-21T10:31:24;12.55;;;4.68;;
82412;SDS011;72056;51.980;15.436;2023-11-21T10:33:53;11.90;;;4.93;;
82412;SDS011;72056;51.980;15.436;2023-11-21T10:36:27;12.25;;;5.43;;
82412;SDS011;72056;51.980;15.436;2023-11-21T10:38:54;12.15;;;5.43;;
82412;SDS011;72056;51.980;15.436;2023-11-21T10:41:22;11.15;;;5.82;;
82412;SDS011;72056;51.980;15.436;2023-11-21T10:43:52;12.55;;;5.57;;
82412;SDS011;72056;51.980;15.436;2023-11-21T10:46:24;13.40;;;5.53;;
82412;SDS011;72056;51.980;15.436;2023-11-21T10:48:55;13.32;;;5.82;;
82412;SDS011;72056;51.980;15.436;2023-11-21T10:51:22;10.82;;;4.68;;
82412;SDS011;72056;51.980;15.436;2023-11-21T10:53:52;10.63;;;4.68;;
82412;SDS011;72056;51.980;15.436;2023-11-21T10:56:18;12.05;;;5.20;;
82412;SDS011;72056;51.980;15.436;2023-11-21T10:58:50;10.50;;;5.18;;
82412;SDS011;72056;51.980;15.436;2023-11-21T11:01:20;12.00;;;5.32;;
82412;SDS011;72056;51.980;15.436;2023-11-21T11:03:49;11.50;;;4.95;;
82412;SDS011;72056;51.980;15.436;2023-11-21T11:06:21;10.80;;;5.05;;
82412;SDS011;72056;51.980;15.436;2023-11-21T11:08:51;10.98;;;4.85;;
82412;SDS011;72056;51.980;15.436;2023-11-21T11:11:23;10.52;;;5.03;;
82412;SDS011;72056;51.980;15.436;2023-11-21T11:13:50;12.02;;;5.38;;
82412;SDS011;72056;51.980;15.436;2023-11-21T11:16:19;11.35;;;4.75;;
82412;SDS011;72056;51.980;15.436;2023-11-21T11:18:47;11.73;;;5.40;;
82412;SDS011;72056;51.980;15.436;2023-11-21T11:21:24;12.82;;;5.63;;
82412;SDS011;72056;51.980;15.436;2023-11-21T11:24:24;12.73;;;5.55;;
82412;SDS011;72056;51.980;15.436;2023-11-21T11:27:24;11.18;;;5.63;;
82412;SDS011;72056;51.980;15.436;2023-11-21T11:33:08;10.88;;;4.70;;
82412;SDS011;72056;51.980;15.436;2023-11-21T11:38:37;10.40;;;4.80;;
82412;SDS011;72056;51.980;15.436;2023-11-21T11:41:07;10.80;;;5.20;;
82412;SDS011;72056;51.980;15.436;2023-11-21T11:43:36;11.48;;;5.75;;
82412;SDS011;72056;51.980;15.436;2023-11-21T11:46:15;11.68;;;5.88;;
82412;SDS011;72056;51.980;15.436;2023-11-21T11:48:42;11.68;;;5.93;;
82412;SDS011;72056;51.980;15.436;2023-11-21T11:51:11;10.98;;;5.30;;
82412;SDS011;72056;51.980;15.436;2023-11-21T11:53:47;11.50;;;5.68;;
82412;SDS011;72056;51.980;15.436;2023-11-21T11:56:33;10.23;;;5.20;;
82412;SDS011;72056;51.980;15.436;2023-11-21T11:59:18;10.52;;;4.75;;
82412;SDS011;72056;51.980;15.436;2023-11-21T12:01:45;9.73;;;4.82;;
82412;SDS011;72056;51.980;15.436;2023-11-21T12:06:52;12.52;;;5.70;;
82412;SDS011;72056;51.980;15.436;2023-11-21T12:09:25;10.75;;;4.88;;
82412;SDS011;72056;51.980;15.436;2023-11-21T12:11:53;9.85;;;4.40;;
82412;SDS011;72056;51.980;15.436;2023-11-21T12:14:22;12.25;;;4.90;;
82412;SDS011;72056;51.980;15.436;2023-11-21T12:16:49;9.75;;;4.97;;
82412;SDS011;72056;51.980;15.436;2023-11-21T12:19:21;10.48;;;4.97;;
82412;SDS011;72056;51.980;15.436;2023-11-21T12:21:48;11.80;;;5.13;;
82412;SDS011;72056;51.980;15.436;2023-11-21T12:24:14;11.05;;;5.30;;
82412;SDS011;72056;51.980;15.436;2023-11-21T12:26:42;11.93;;;5.03;;
82412;SDS011;72056;51.980;15.436;2023-11-21T12:29:11;10.07;;;5.00;;
82412;SDS011;72056;51.980;15.436;2023-11-21T12:31:41;11.00;;;5.40;;
82412;SDS011;72056;51.980;15.436;2023-11-21T12:34:08;11.70;;;5.15;;
82412;SDS011;72056;51.980;15.436;2023-11-21T12:36:37;10.75;;;4.85;;
82412;SDS011;72056;51.980;15.436;2023-11-21T12:39:04;10.75;;;4.75;;
82412;SDS011;72056;51.980;15.436;2023-11-21T12:41:36;11.05;;;5.18;;
82412;SDS011;72056;51.980;15.436;2023-11-21T12:44:12;11.52;;;5.30;;
82412;SDS011;72056;51.980;15.436;2023-11-21T12:46:43;12.00;;;5.28;;
82412;SDS011;72056;51.980;15.436;2023-11-21T12:49:11;11.45;;;5.05;;
82412;SDS011;72056;51.980;15.436;2023-11-21T12:51:44;10.98;;;4.80;;
82412;SDS011;72056;51.980;15.436;2023-11-21T12:54:12;10.60;;;4.65;;
82412;SDS011;72056;51.980;15.436;2023-11-21T12:56:44;11.57;;;5.28;;
82412;SDS011;72056;51.980;15.436;2023-11-21T12:59:14;10.43;;;4.50;;
82412;SDS011;72056;51.980;15.436;2023-11-21T13:01:44;10.90;;;4.97;;
82412;SDS011;72056;51.980;15.436;2023-11-21T13:04:11;10.70;;;4.93;;
82412;SDS011;72056;51.980;15.436;2023-11-21T13:06:38;13.27;;;5.55;;
82412;SDS011;72056;51.980;15.436;2023-11-21T13:09:07;10.68;;;5.38;;
82412;SDS011;72056;51.980;15.436;2023-11-21T13:11:36;13.60;;;5.95;;
82412;SDS011;72056;51.980;15.436;2023-11-21T13:14:04;10.80;;;4.93;;
82412;SDS011;72056;51.980;15.436;2023-11-21T13:16:31;11.80;;;5.72;;
82412;SDS011;72056;51.980;15.436;2023-11-21T13:18:59;12.40;;;5.80;;
82412;SDS011;72056;51.980;15.436;2023-11-21T13:21:30;13.40;;;5.35;;
82412;SDS011;72056;51.980;15.436;2023-11-21T13:23:57;14.35;;;6.40;;
82412;SDS011;72056;51.980;15.436;2023-11-21T13:26:29;13.07;;;6.35;;
82412;SDS011;72056;51.980;15.436;2023-11-21T13:28:56;11.75;;;5.35;;
82412;SDS011;72056;51.980;15.436;2023-11-21T13:31:24;14.73;;;6.47;;
82412;SDS011;72056;51.980;15.436;2023-11-21T13:33:58;15.30;;;6.88;;
82412;SDS011;72056;51.980;15.436;2023-11-21T13:39:03;13.80;;;5.53;;
82412;SDS011;72056;51.980;15.436;2023-11-21T13:41:35;14.43;;;6.38;;
82412;SDS011;72056;51.980;15.436;2023-11-21T13:44:07;13.65;;;5.88;;
82412;SDS011;72056;51.980;15.436;2023-11-21T13:46:52;13.98;;;6.55;;
82412;SDS011;72056;51.980;15.436;2023-11-21T13:49:25;13.43;;;5.90;;
82412;SDS011;72056;51.980;15.436;2023-11-21T13:52:00;14.65;;;6.32;;
82412;SDS011;72056;51.980;15.436;2023-11-21T13:54:28;17.08;;;7.32;;
82412;SDS011;72056;51.980;15.436;2023-11-21T13:56:54;16.83;;;7.93;;
82412;SDS011;72056;51.980;15.436;2023-11-21T13:59:23;15.55;;;7.00;;
82412;SDS011;72056;51.980;15.436;2023-11-21T14:01:56;15.93;;;7.32;;
82412;SDS011;72056;51.980;15.436;2023-11-21T14:04:38;16.48;;;7.43;;
82412;SDS011;72056;51.980;15.436;2023-11-21T14:07:12;16.17;;;6.95;;
82412;SDS011;72056;51.980;15.436;2023-11-21T14:09:56;15.52;;;6.55;;
82412;SDS011;72056;51.980;15.436;2023-11-21T14:12:23;13.15;;;6.03;;
82412;SDS011;72056;51.980;15.436;2023-11-21T14:14:52;11.55;;;5.93;;
82412;SDS011;72056;51.980;15.436;2023-11-21T14:17:23;11.27;;;5.30;;
82412;SDS011;72056;51.980;15.436;2023-11-21T14:19:50;12.30;;;5.72;;
82412;SDS011;72056;51.980;15.436;2023-11-21T14:22:18;13.80;;;5.40;;
82412;SDS011;72056;51.980;15.436;2023-11-21T14:24:47;13.02;;;5.68;;
82412;SDS011;72056;51.980;15.436;2023-11-21T14:27:20;13.00;;;5.65;;
82412;SDS011;72056;51.980;15.436;2023-11-21T14:29:47;10.82;;;4.82;;
82412;SDS011;72056;51.980;15.436;2023-11-21T14:32:19;16.88;;;5.95;;
82412;SDS011;72056;51.980;15.436;2023-11-21T14:34:47;11.73;;;6.03;;
82412;SDS011;72056;51.980;15.436;2023-11-21T14:37:15;10.57;;;4.85;;
82412;SDS011;72056;51.980;15.436;2023-11-21T14:39:43;12.40;;;6.00;;
82412;SDS011;72056;51.980;15.436;2023-11-21T14:42:15;10.45;;;4.40;;
82412;SDS011;72056;51.980;15.436;2023-11-21T14:44:53;10.65;;;4.90;;
82412;SDS011;72056;51.980;15.436;2023-11-21T14:47:28;9.48;;;4.25;;
82412;SDS011;72056;51.980;15.436;2023-11-21T14:49:55;9.23;;;4.20;;
82412;SDS011;72056;51.980;15.436;2023-11-21T14:52:25;10.15;;;4.82;;
82412;SDS011;72056;51.980;15.436;2023-11-21T14:55:05;8.32;;;4.20;;
82412;SDS011;72056;51.980;15.436;2023-11-21T14:57:50;9.75;;;4.53;;
82412;SDS011;72056;51.980;15.436;2023-11-21T15:00:20;12.25;;;4.80;;
82412;SDS011;72056;51.980;15.436;2023-11-21T15:03:01;11.27;;;5.18;;
82412;SDS011;72056;51.980;15.436;2023-11-21T15:05:29;11.52;;;4.90;;
82412;SDS011;72056;51.980;15.436;2023-11-21T15:07:55;9.60;;;4.55;;
82412;SDS011;72056;51.980;15.436;2023-11-21T15:10:39;9.80;;;4.38;;
82412;SDS011;72056;51.980;15.436;2023-11-21T15:13:13;10.68;;;4.68;;